sensor_id;sensor_type;location;lat;lon;timestamp;P1;durP1;ratioP1;P2;durP2;ratioP2
47287;SDS011;33020;53.008;13.558;2023-07-31T00:01:31;5.50;;;2.70;;
47287;SDS011;33020;53.008;13.558;2023-07-31T00:03:58;4.07;;;2.28;;
47287;SDS011;33020;53.008;13.558;2023-07-31T00:06:25;2.90;;;2.10;;
47287;SDS011;33020;53.008;13.558;2023-07-31T00:08:52;3.72;;;2.47;;
47287;SDS011;33020;53.008;13.558;2023-07-31T00:11:18;3.60;;;2.30;;
47287;SDS011;33020;53.008;13.558;2023-07-31T00:13:45;4.13;;;2.63;;
47287;SDS011;33020;53.008;13.558;2023-07-31T00:16:12;4.05;;;2.22;;
47287;SDS011;33020;53.008;13.558;2023-07-31T00:18:39;4.30;;;2.60;;
47287;SDS011;33020;53.008;13.558;2023-07-31T00:21:05;5.35;;;2.45;;
47287;SDS011;33020;53.008;13.558;2023-07-31T00:23:32;3.95;;;2.30;;
47287;SDS011;33020;53.008;13.558;2023-07-31T00:26:00;4.47;;;2.78;;
47287;SDS011;33020;53.008;13.558;2023-07-31T00:28:26;4.50;;;2.60;;
47287;SDS011;33020;53.008;13.558;2023-07-31T00:30:55;3.40;;;2.55;;
47287;SDS011;33020;53.008;13.558;2023-07-31T00:33:22;5.03;;;3.03;;
47287;SDS011;33020;53.008;13.558;2023-07-31T00:35:48;3.45;;;2.47;;
47287;SDS011;33020;53.008;13.558;2023-07-31T00:38:17;2.72;;;2.33;;
47287;SDS011;33020;53.008;13.558;2023-07-31T00:40:44;3.97;;;2.63;;
47287;SDS011;33020;53.008;13.558;2023-07-31T00:43:11;3.38;;;2.40;;
47287;SDS011;33020;53.008;13.558;2023-07-31T00:45:40;4.78;;;2.42;;
47287;SDS011;33020;53.008;13.558;2023-07-31T00:48:08;3.30;;;2.50;;
47287;SDS011;33020;53.008;13.558;2023-07-31T00:50:35;3.95;;;2.65;;
47287;SDS011;33020;53.008;13.558;2023-07-31T00:53:02;3.58;;;2.60;;
47287;SDS011;33020;53.008;13.558;2023-07-31T00:55:29;2.78;;;2.40;;
47287;SDS011;33020;53.008;13.558;2023-07-31T00:57:59;3.25;;;1.90;;
47287;SDS011;33020;53.008;13.558;2023-07-31T01:00:26;3.83;;;2.60;;
47287;SDS011;33020;53.008;13.558;2023-07-31T01:02:53;2.88;;;2.05;;
47287;SDS011;33020;53.008;13.558;2023-07-31T01:05:23;3.67;;;2.60;;
47287;SDS011;33020;53.008;13.558;2023-07-31T01:08:10;2.90;;;2.22;;
47287;SDS011;33020;53.008;13.558;2023-07-31T01:10:49;3.38;;;2.38;;
47287;SDS011;33020;53.008;13.558;2023-07-31T01:13:18;4.32;;;2.38;;
47287;SDS011;33020;53.008;13.558;2023-07-31T01:15:45;3.85;;;2.20;;
47287;SDS011;33020;53.008;13.558;2023-07-31T01:18:12;2.97;;;2.63;;
47287;SDS011;33020;53.008;13.558;2023-07-31T01:20:38;4.55;;;2.53;;
47287;SDS011;33020;53.008;13.558;2023-07-31T01:26:03;4.15;;;2.80;;
47287;SDS011;33020;53.008;13.558;2023-07-31T01:31:07;3.13;;;2.30;;
47287;SDS011;33020;53.008;13.558;2023-07-31T01:33:34;3.22;;;2.25;;
47287;SDS011;33020;53.008;13.558;2023-07-31T01:36:02;4.05;;;2.53;;
47287;SDS011;33020;53.008;13.558;2023-07-31T01:38:30;5.30;;;2.50;;
47287;SDS011;33020;53.008;13.558;2023-07-31T01:40:56;4.82;;;2.50;;
47287;SDS011;33020;53.008;13.558;2023-07-31T01:43:23;5.45;;;2.50;;
47287;SDS011;33020;53.008;13.558;2023-07-31T01:45:50;6.00;;;2.70;;
47287;SDS011;33020;53.008;13.558;2023-07-31T01:48:17;3.72;;;2.13;;
47287;SDS011;33020;53.008;13.558;2023-07-31T01:50:44;7.00;;;2.47;;
47287;SDS011;33020;53.008;13.558;2023-07-31T01:53:11;4.82;;;2.20;;
47287;SDS011;33020;53.008;13.558;2023-07-31T01:55:39;4.30;;;2.30;;
47287;SDS011;33020;53.008;13.558;2023-07-31T01:58:08;5.40;;;2.15;;
47287;SDS011;33020;53.008;13.558;2023-07-31T02:00:35;3.47;;;2.17;;
47287;SDS011;33020;53.008;13.558;2023-07-31T02:03:02;4.72;;;2.33;;
47287;SDS011;33020;53.008;13.558;2023-07-31T02:05:29;3.20;;;2.05;;
47287;SDS011;33020;53.008;13.558;2023-07-31T02:07:56;4.22;;;2.10;;
47287;SDS011;33020;53.008;13.558;2023-07-31T02:10:23;3.70;;;2.00;;
47287;SDS011;33020;53.008;13.558;2023-07-31T02:12:49;7.00;;;2.40;;
47287;SDS011;33020;53.008;13.558;2023-07-31T02:15:16;3.67;;;2.80;;
47287;SDS011;33020;53.008;13.558;2023-07-31T02:17:46;2.83;;;2.50;;
47287;SDS011;33020;53.008;13.558;2023-07-31T02:20:13;2.72;;;1.85;;
47287;SDS011;33020;53.008;13.558;2023-07-31T02:22:39;3.25;;;2.03;;
47287;SDS011;33020;53.008;13.558;2023-07-31T02:25:06;5.38;;;2.50;;
47287;SDS011;33020;53.008;13.558;2023-07-31T02:27:33;4.15;;;1.95;;
47287;SDS011;33020;53.008;13.558;2023-07-31T02:30:02;4.28;;;2.80;;
47287;SDS011;33020;53.008;13.558;2023-07-31T02:32:29;3.13;;;2.08;;
47287;SDS011;33020;53.008;13.558;2023-07-31T02:34:56;4.25;;;2.72;;
47287;SDS011;33020;53.008;13.558;2023-07-31T02:37:23;4.40;;;2.30;;
47287;SDS011;33020;53.008;13.558;2023-07-31T02:39:50;4.38;;;2.35;;
47287;SDS011;33020;53.008;13.558;2023-07-31T02:42:16;4.13;;;2.13;;
47287;SDS011;33020;53.008;13.558;2023-07-31T02:44:43;6.15;;;2.67;;
47287;SDS011;33020;53.008;13.558;2023-07-31T02:47:10;4.10;;;2.30;;
47287;SDS011;33020;53.008;13.558;2023-07-31T02:49:36;3.35;;;2.55;;
47287;SDS011;33020;53.008;13.558;2023-07-31T02:52:03;3.63;;;2.30;;
47287;SDS011;33020;53.008;13.558;2023-07-31T02:54:30;3.80;;;2.42;;
47287;SDS011;33020;53.008;13.558;2023-07-31T02:56:57;5.70;;;2.58;;
47287;SDS011;33020;53.008;13.558;2023-07-31T02:59:24;6.72;;;2.60;;
47287;SDS011;33020;53.008;13.558;2023-07-31T03:01:51;3.88;;;2.53;;
47287;SDS011;33020;53.008;13.558;2023-07-31T03:04:18;6.35;;;2.88;;
47287;SDS011;33020;53.008;13.558;2023-07-31T03:06:45;3.88;;;2.65;;
47287;SDS011;33020;53.008;13.558;2023-07-31T03:09:11;5.47;;;2.80;;
47287;SDS011;33020;53.008;13.558;2023-07-31T03:11:38;5.50;;;2.83;;
47287;SDS011;33020;53.008;13.558;2023-07-31T03:14:05;3.80;;;2.40;;
47287;SDS011;33020;53.008;13.558;2023-07-31T03:16:31;6.68;;;2.97;;
47287;SDS011;33020;53.008;13.558;2023-07-31T03:18:58;6.38;;;3.00;;
47287;SDS011;33020;53.008;13.558;2023-07-31T03:21:25;4.50;;;2.90;;
47287;SDS011;33020;53.008;13.558;2023-07-31T03:23:53;3.70;;;2.50;;
47287;SDS011;33020;53.008;13.558;2023-07-31T03:26:20;3.97;;;2.92;;
47287;SDS011;33020;53.008;13.558;2023-07-31T03:28:47;6.18;;;3.47;;
47287;SDS011;33020;53.008;13.558;2023-07-31T03:31:15;4.53;;;3.33;;
47287;SDS011;33020;53.008;13.558;2023-07-31T03:33:42;5.45;;;2.83;;
47287;SDS011;33020;53.008;13.558;2023-07-31T03:36:09;8.35;;;3.83;;
47287;SDS011;33020;53.008;13.558;2023-07-31T03:38:36;4.43;;;3.13;;
47287;SDS011;33020;53.008;13.558;2023-07-31T03:41:02;4.68;;;3.60;;
47287;SDS011;33020;53.008;13.558;2023-07-31T03:43:33;7.50;;;3.78;;
47287;SDS011;33020;53.008;13.558;2023-07-31T03:46:02;5.63;;;3.35;;
47287;SDS011;33020;53.008;13.558;2023-07-31T03:48:29;6.72;;;3.38;;
47287;SDS011;33020;53.008;13.558;2023-07-31T03:50:56;3.67;;;2.85;;
47287;SDS011;33020;53.008;13.558;2023-07-31T03:53:23;7.78;;;3.92;;
47287;SDS011;33020;53.008;13.558;2023-07-31T03:55:50;5.72;;;3.65;;
47287;SDS011;33020;53.008;13.558;2023-07-31T03:58:16;4.75;;;3.20;;
47287;SDS011;33020;53.008;13.558;2023-07-31T04:00:43;5.97;;;3.30;;
47287;SDS011;33020;53.008;13.558;2023-07-31T04:03:10;4.22;;;3.05;;
47287;SDS011;33020;53.008;13.558;2023-07-31T04:05:41;6.85;;;3.28;;
47287;SDS011;33020;53.008;13.558;2023-07-31T04:08:08;5.82;;;3.28;;
47287;SDS011;33020;53.008;13.558;2023-07-31T04:10:35;7.35;;;3.90;;
47287;SDS011;33020;53.008;13.558;2023-07-31T04:13:02;4.22;;;3.55;;
47287;SDS011;33020;53.008;13.558;2023-07-31T04:15:28;7.22;;;4.43;;
47287;SDS011;33020;53.008;13.558;2023-07-31T04:17:58;5.20;;;3.50;;
47287;SDS011;33020;53.008;13.558;2023-07-31T04:20:25;3.50;;;3.20;;
47287;SDS011;33020;53.008;13.558;2023-07-31T04:22:52;6.75;;;3.63;;
47287;SDS011;33020;53.008;13.558;2023-07-31T04:25:19;6.43;;;3.30;;
47287;SDS011;33020;53.008;13.558;2023-07-31T04:27:46;4.38;;;3.15;;
47287;SDS011;33020;53.008;13.558;2023-07-31T04:30:12;3.95;;;3.10;;
47287;SDS011;33020;53.008;13.558;2023-07-31T04:32:39;5.30;;;3.40;;
47287;SDS011;33020;53.008;13.558;2023-07-31T04:35:06;5.15;;;3.58;;
47287;SDS011;33020;53.008;13.558;2023-07-31T04:37:33;3.92;;;3.50;;
47287;SDS011;33020;53.008;13.558;2023-07-31T04:40:00;8.50;;;3.53;;
47287;SDS011;33020;53.008;13.558;2023-07-31T04:42:26;5.10;;;3.35;;
47287;SDS011;33020;53.008;13.558;2023-07-31T04:44:53;4.35;;;3.67;;
47287;SDS011;33020;53.008;13.558;2023-07-31T04:47:20;5.47;;;4.22;;
47287;SDS011;33020;53.008;13.558;2023-07-31T04:49:47;6.15;;;3.60;;
47287;SDS011;33020;53.008;13.558;2023-07-31T04:52:14;7.40;;;4.28;;
47287;SDS011;33020;53.008;13.558;2023-07-31T04:54:41;7.60;;;3.50;;
47287;SDS011;33020;53.008;13.558;2023-07-31T04:57:08;3.78;;;3.15;;
47287;SDS011;33020;53.008;13.558;2023-07-31T04:59:34;6.80;;;3.60;;
47287;SDS011;33020;53.008;13.558;2023-07-31T05:02:01;4.65;;;3.90;;
47287;SDS011;33020;53.008;13.558;2023-07-31T05:04:28;4.18;;;3.40;;
47287;SDS011;33020;53.008;13.558;2023-07-31T05:06:55;4.90;;;3.40;;
47287;SDS011;33020;53.008;13.558;2023-07-31T05:09:22;5.13;;;3.70;;
47287;SDS011;33020;53.008;13.558;2023-07-31T05:11:49;4.65;;;3.40;;
47287;SDS011;33020;53.008;13.558;2023-07-31T05:14:17;4.82;;;3.60;;
47287;SDS011;33020;53.008;13.558;2023-07-31T05:16:44;5.85;;;3.47;;
47287;SDS011;33020;53.008;13.558;2023-07-31T05:19:11;6.13;;;3.72;;
47287;SDS011;33020;53.008;13.558;2023-07-31T05:21:38;6.90;;;3.30;;
47287;SDS011;33020;53.008;13.558;2023-07-31T05:24:05;5.72;;;3.25;;
47287;SDS011;33020;53.008;13.558;2023-07-31T05:26:32;5.53;;;3.50;;
47287;SDS011;33020;53.008;13.558;2023-07-31T05:29:00;5.85;;;3.50;;
47287;SDS011;33020;53.008;13.558;2023-07-31T05:31:27;7.32;;;3.70;;
47287;SDS011;33020;53.008;13.558;2023-07-31T05:33:54;6.90;;;3.78;;
47287;SDS011;33020;53.008;13.558;2023-07-31T05:36:21;7.32;;;3.78;;
47287;SDS011;33020;53.008;13.558;2023-07-31T05:38:47;9.30;;;3.75;;
47287;SDS011;33020;53.008;13.558;2023-07-31T05:41:14;7.78;;;3.97;;
47287;SDS011;33020;53.008;13.558;2023-07-31T05:43:41;5.80;;;4.20;;
47287;SDS011;33020;53.008;13.558;2023-07-31T05:46:09;8.57;;;5.00;;
47287;SDS011;33020;53.008;13.558;2023-07-31T05:48:36;6.43;;;3.90;;
47287;SDS011;33020;53.008;13.558;2023-07-31T05:51:03;4.90;;;3.80;;
47287;SDS011;33020;53.008;13.558;2023-07-31T05:53:29;6.65;;;3.60;;
47287;SDS011;33020;53.008;13.558;2023-07-31T05:55:56;4.82;;;3.15;;
47287;SDS011;33020;53.008;13.558;2023-07-31T05:58:26;5.65;;;3.50;;
47287;SDS011;33020;53.008;13.558;2023-07-31T06:00:52;8.05;;;3.60;;
47287;SDS011;33020;53.008;13.558;2023-07-31T06:05:54;5.25;;;3.53;;
47287;SDS011;33020;53.008;13.558;2023-07-31T06:08:21;5.15;;;3.40;;
47287;SDS011;33020;53.008;13.558;2023-07-31T06:10:48;6.63;;;4.07;;
47287;SDS011;33020;53.008;13.558;2023-07-31T06:13:15;7.30;;;3.65;;
47287;SDS011;33020;53.008;13.558;2023-07-31T06:15:42;8.07;;;4.07;;
47287;SDS011;33020;53.008;13.558;2023-07-31T06:18:14;6.88;;;3.60;;
47287;SDS011;33020;53.008;13.558;2023-07-31T06:20:42;6.00;;;3.97;;
47287;SDS011;33020;53.008;13.558;2023-07-31T06:23:09;4.78;;;3.78;;
47287;SDS011;33020;53.008;13.558;2023-07-31T06:25:36;7.03;;;4.60;;
47287;SDS011;33020;53.008;13.558;2023-07-31T06:28:03;6.53;;;4.82;;
47287;SDS011;33020;53.008;13.558;2023-07-31T06:30:30;6.40;;;4.75;;
47287;SDS011;33020;53.008;13.558;2023-07-31T06:32:56;6.05;;;3.95;;
47287;SDS011;33020;53.008;13.558;2023-07-31T06:35:32;4.88;;;4.18;;
47287;SDS011;33020;53.008;13.558;2023-07-31T06:38:00;7.10;;;3.70;;
47287;SDS011;33020;53.008;13.558;2023-07-31T06:40:28;6.45;;;3.85;;
47287;SDS011;33020;53.008;13.558;2023-07-31T06:42:57;6.28;;;4.20;;
47287;SDS011;33020;53.008;13.558;2023-07-31T06:45:45;4.03;;;3.50;;
47287;SDS011;33020;53.008;13.558;2023-07-31T06:48:12;4.88;;;3.83;;
47287;SDS011;33020;53.008;13.558;2023-07-31T06:50:39;6.45;;;3.70;;
47287;SDS011;33020;53.008;13.558;2023-07-31T06:53:06;5.38;;;3.65;;
47287;SDS011;33020;53.008;13.558;2023-07-31T06:55:32;5.35;;;3.90;;
47287;SDS011;33020;53.008;13.558;2023-07-31T06:57:59;4.20;;;3.10;;
47287;SDS011;33020;53.008;13.558;2023-07-31T07:00:26;5.30;;;3.80;;
47287;SDS011;33020;53.008;13.558;2023-07-31T07:02:53;5.78;;;3.88;;
47287;SDS011;33020;53.008;13.558;2023-07-31T07:05:20;7.85;;;4.22;;
47287;SDS011;33020;53.008;13.558;2023-07-31T07:07:48;6.03;;;4.05;;
47287;SDS011;33020;53.008;13.558;2023-07-31T07:10:16;4.70;;;3.35;;
47287;SDS011;33020;53.008;13.558;2023-07-31T07:12:42;5.05;;;3.38;;
47287;SDS011;33020;53.008;13.558;2023-07-31T07:15:12;5.20;;;3.00;;
47287;SDS011;33020;53.008;13.558;2023-07-31T07:17:39;6.85;;;4.10;;
47287;SDS011;33020;53.008;13.558;2023-07-31T07:20:06;6.47;;;3.50;;
47287;SDS011;33020;53.008;13.558;2023-07-31T07:22:36;6.85;;;3.55;;
47287;SDS011;33020;53.008;13.558;2023-07-31T07:25:03;5.03;;;3.63;;
47287;SDS011;33020;53.008;13.558;2023-07-31T07:27:31;6.47;;;3.83;;
47287;SDS011;33020;53.008;13.558;2023-07-31T07:29:57;5.07;;;3.22;;
47287;SDS011;33020;53.008;13.558;2023-07-31T07:32:24;5.88;;;3.92;;
47287;SDS011;33020;53.008;13.558;2023-07-31T07:34:51;5.10;;;3.33;;
47287;SDS011;33020;53.008;13.558;2023-07-31T07:37:18;5.82;;;3.42;;
47287;SDS011;33020;53.008;13.558;2023-07-31T07:39:45;6.65;;;3.60;;
47287;SDS011;33020;53.008;13.558;2023-07-31T07:42:12;7.07;;;3.30;;
47287;SDS011;33020;53.008;13.558;2023-07-31T07:44:38;7.35;;;3.47;;
47287;SDS011;33020;53.008;13.558;2023-07-31T07:47:05;4.97;;;3.38;;
47287;SDS011;33020;53.008;13.558;2023-07-31T07:49:33;4.95;;;3.03;;
47287;SDS011;33020;53.008;13.558;2023-07-31T07:52:01;7.10;;;3.58;;
47287;SDS011;33020;53.008;13.558;2023-07-31T07:54:32;4.07;;;3.20;;
47287;SDS011;33020;53.008;13.558;2023-07-31T07:56:59;4.20;;;2.90;;
47287;SDS011;33020;53.008;13.558;2023-07-31T07:59:27;3.13;;;2.80;;
47287;SDS011;33020;53.008;13.558;2023-07-31T08:01:56;4.80;;;2.95;;
47287;SDS011;33020;53.008;13.558;2023-07-31T08:04:24;5.40;;;3.33;;
47287;SDS011;33020;53.008;13.558;2023-07-31T08:06:51;3.13;;;2.60;;
47287;SDS011;33020;53.008;13.558;2023-07-31T08:09:18;4.95;;;3.00;;
47287;SDS011;33020;53.008;13.558;2023-07-31T08:11:45;4.75;;;2.72;;
47287;SDS011;33020;53.008;13.558;2023-07-31T08:14:13;3.58;;;2.42;;
47287;SDS011;33020;53.008;13.558;2023-07-31T08:16:40;4.07;;;3.10;;
47287;SDS011;33020;53.008;13.558;2023-07-31T08:19:07;3.35;;;2.65;;
47287;SDS011;33020;53.008;13.558;2023-07-31T08:21:34;4.93;;;2.47;;
47287;SDS011;33020;53.008;13.558;2023-07-31T08:24:01;25.88;;;17.15;;
47287;SDS011;33020;53.008;13.558;2023-07-31T08:26:28;25.90;;;15.40;;
47287;SDS011;33020;53.008;13.558;2023-07-31T08:28:55;4.95;;;3.28;;
47287;SDS011;33020;53.008;13.558;2023-07-31T08:31:22;4.15;;;2.63;;
47287;SDS011;33020;53.008;13.558;2023-07-31T08:33:49;2.72;;;2.50;;
47287;SDS011;33020;53.008;13.558;2023-07-31T08:36:15;4.32;;;2.50;;
47287;SDS011;33020;53.008;13.558;2023-07-31T08:38:42;4.43;;;2.03;;
47287;SDS011;33020;53.008;13.558;2023-07-31T08:41:10;4.07;;;2.33;;
47287;SDS011;33020;53.008;13.558;2023-07-31T08:43:39;2.63;;;1.90;;
47287;SDS011;33020;53.008;13.558;2023-07-31T08:46:07;5.10;;;2.28;;
47287;SDS011;33020;53.008;13.558;2023-07-31T08:48:35;2.03;;;1.77;;
47287;SDS011;33020;53.008;13.558;2023-07-31T08:51:02;3.25;;;1.80;;
47287;SDS011;33020;53.008;13.558;2023-07-31T08:53:28;3.05;;;2.85;;
47287;SDS011;33020;53.008;13.558;2023-07-31T08:55:56;3.30;;;2.20;;
47287;SDS011;33020;53.008;13.558;2023-07-31T08:58:30;2.00;;;1.70;;
47287;SDS011;33020;53.008;13.558;2023-07-31T09:00:59;2.55;;;2.05;;
47287;SDS011;33020;53.008;13.558;2023-07-31T09:03:27;2.20;;;1.88;;
47287;SDS011;33020;53.008;13.558;2023-07-31T09:05:56;3.35;;;1.83;;
47287;SDS011;33020;53.008;13.558;2023-07-31T09:08:24;2.33;;;1.90;;
47287;SDS011;33020;53.008;13.558;2023-07-31T09:10:53;3.20;;;1.90;;
47287;SDS011;33020;53.008;13.558;2023-07-31T09:13:21;2.42;;;1.80;;
47287;SDS011;33020;53.008;13.558;2023-07-31T09:15:48;1.92;;;1.70;;
47287;SDS011;33020;53.008;13.558;2023-07-31T09:18:15;2.28;;;2.00;;
47287;SDS011;33020;53.008;13.558;2023-07-31T09:20:45;2.22;;;2.00;;
47287;SDS011;33020;53.008;13.558;2023-07-31T09:23:13;2.05;;;1.83;;
47287;SDS011;33020;53.008;13.558;2023-07-31T09:25:43;2.65;;;2.10;;
47287;SDS011;33020;53.008;13.558;2023-07-31T09:28:10;3.50;;;1.83;;
47287;SDS011;33020;53.008;13.558;2023-07-31T09:34:17;3.20;;;2.20;;
47287;SDS011;33020;53.008;13.558;2023-07-31T09:36:45;2.40;;;1.95;;
47287;SDS011;33020;53.008;13.558;2023-07-31T09:39:15;2.58;;;1.85;;
47287;SDS011;33020;53.008;13.558;2023-07-31T09:41:44;3.20;;;1.65;;
47287;SDS011;33020;53.008;13.558;2023-07-31T09:44:12;2.22;;;1.60;;
47287;SDS011;33020;53.008;13.558;2023-07-31T09:46:39;2.30;;;1.80;;
47287;SDS011;33020;53.008;13.558;2023-07-31T09:49:11;2.97;;;1.80;;
47287;SDS011;33020;53.008;13.558;2023-07-31T09:51:39;1.70;;;1.45;;
47287;SDS011;33020;53.008;13.558;2023-07-31T09:54:08;2.58;;;2.00;;
47287;SDS011;33020;53.008;13.558;2023-07-31T09:56:44;2.10;;;1.70;;
47287;SDS011;33020;53.008;13.558;2023-07-31T09:59:17;2.08;;;1.70;;
47287;SDS011;33020;53.008;13.558;2023-07-31T10:01:49;1.65;;;1.52;;
47287;SDS011;33020;53.008;13.558;2023-07-31T10:04:16;3.03;;;1.70;;
47287;SDS011;33020;53.008;13.558;2023-07-31T10:06:47;1.60;;;1.50;;
47287;SDS011;33020;53.008;13.558;2023-07-31T10:09:15;2.72;;;2.13;;
47287;SDS011;33020;53.008;13.558;2023-07-31T10:11:50;2.97;;;1.70;;
47287;SDS011;33020;53.008;13.558;2023-07-31T10:14:24;1.85;;;1.60;;
47287;SDS011;33020;53.008;13.558;2023-07-31T10:16:52;1.50;;;1.40;;
47287;SDS011;33020;53.008;13.558;2023-07-31T10:19:20;2.25;;;1.65;;
47287;SDS011;33020;53.008;13.558;2023-07-31T10:21:48;1.77;;;1.60;;
47287;SDS011;33020;53.008;13.558;2023-07-31T10:24:15;3.15;;;1.90;;
47287;SDS011;33020;53.008;13.558;2023-07-31T10:26:49;2.30;;;1.60;;
47287;SDS011;33020;53.008;13.558;2023-07-31T10:29:17;2.13;;;1.77;;
47287;SDS011;33020;53.008;13.558;2023-07-31T10:31:46;2.90;;;1.58;;
47287;SDS011;33020;53.008;13.558;2023-07-31T10:34:15;1.90;;;1.70;;
47287;SDS011;33020;53.008;13.558;2023-07-31T10:36:42;1.42;;;1.33;;
47287;SDS011;33020;53.008;13.558;2023-07-31T10:42:10;1.50;;;1.30;;
47287;SDS011;33020;53.008;13.558;2023-07-31T10:44:43;1.30;;;1.20;;
47287;SDS011;33020;53.008;13.558;2023-07-31T10:47:14;2.95;;;1.13;;
47287;SDS011;33020;53.008;13.558;2023-07-31T10:49:44;2.10;;;1.15;;
47287;SDS011;33020;53.008;13.558;2023-07-31T10:52:12;3.53;;;1.20;;
47287;SDS011;33020;53.008;13.558;2023-07-31T10:54:40;1.08;;;0.98;;
47287;SDS011;33020;53.008;13.558;2023-07-31T10:57:20;1.10;;;0.90;;
47287;SDS011;33020;53.008;13.558;2023-07-31T10:59:48;1.17;;;0.93;;
47287;SDS011;33020;53.008;13.558;2023-07-31T11:02:25;0.90;;;0.90;;
47287;SDS011;33020;53.008;13.558;2023-07-31T11:05:06;1.40;;;1.23;;
47287;SDS011;33020;53.008;13.558;2023-07-31T11:07:47;1.33;;;1.17;;
47287;SDS011;33020;53.008;13.558;2023-07-31T11:10:18;1.63;;;1.40;;
47287;SDS011;33020;53.008;13.558;2023-07-31T11:12:46;2.10;;;1.52;;
47287;SDS011;33020;53.008;13.558;2023-07-31T11:15:14;2.13;;;1.35;;
47287;SDS011;33020;53.008;13.558;2023-07-31T11:17:40;2.30;;;1.40;;
47287;SDS011;33020;53.008;13.558;2023-07-31T11:20:08;1.40;;;1.30;;
47287;SDS011;33020;53.008;13.558;2023-07-31T11:22:35;2.00;;;1.40;;
47287;SDS011;33020;53.008;13.558;2023-07-31T11:25:03;2.40;;;1.40;;
47287;SDS011;33020;53.008;13.558;2023-07-31T11:27:30;1.33;;;1.20;;
47287;SDS011;33020;53.008;13.558;2023-07-31T11:30:01;1.80;;;1.20;;
47287;SDS011;33020;53.008;13.558;2023-07-31T11:32:29;2.28;;;1.20;;
47287;SDS011;33020;53.008;13.558;2023-07-31T11:34:58;1.70;;;1.50;;
47287;SDS011;33020;53.008;13.558;2023-07-31T11:37:25;4.00;;;1.67;;
47287;SDS011;33020;53.008;13.558;2023-07-31T11:40:08;3.33;;;2.03;;
47287;SDS011;33020;53.008;13.558;2023-07-31T11:42:36;4.50;;;2.30;;
47287;SDS011;33020;53.008;13.558;2023-07-31T11:45:06;5.07;;;3.05;;
47287;SDS011;33020;53.008;13.558;2023-07-31T11:47:34;3.35;;;2.33;;
47287;SDS011;33020;53.008;13.558;2023-07-31T11:50:02;4.40;;;2.70;;
47287;SDS011;33020;53.008;13.558;2023-07-31T11:52:39;4.57;;;2.85;;
47287;SDS011;33020;53.008;13.558;2023-07-31T11:55:25;4.45;;;2.85;;
47287;SDS011;33020;53.008;13.558;2023-07-31T11:57:55;4.03;;;3.00;;
47287;SDS011;33020;53.008;13.558;2023-07-31T12:00:28;5.53;;;3.30;;
47287;SDS011;33020;53.008;13.558;2023-07-31T12:02:55;3.65;;;3.00;;
47287;SDS011;33020;53.008;13.558;2023-07-31T12:05:22;3.60;;;3.20;;
47287;SDS011;33020;53.008;13.558;2023-07-31T12:07:50;5.50;;;3.17;;
47287;SDS011;33020;53.008;13.558;2023-07-31T12:10:25;4.97;;;3.22;;
47287;SDS011;33020;53.008;13.558;2023-07-31T12:18:01;4.87;;;3.20;;
47287;SDS011;33020;53.008;13.558;2023-07-31T12:20:31;5.25;;;3.20;;
47287;SDS011;33020;53.008;13.558;2023-07-31T12:23:01;4.07;;;2.70;;
47287;SDS011;33020;53.008;13.558;2023-07-31T12:25:32;3.38;;;2.90;;
47287;SDS011;33020;53.008;13.558;2023-07-31T12:28:04;6.13;;;3.47;;
47287;SDS011;33020;53.008;13.558;2023-07-31T12:30:33;5.38;;;3.58;;
47287;SDS011;33020;53.008;13.558;2023-07-31T12:33:05;5.20;;;3.58;;
47287;SDS011;33020;53.008;13.558;2023-07-31T12:35:36;5.15;;;3.45;;
47287;SDS011;33020;53.008;13.558;2023-07-31T12:38:04;4.63;;;3.35;;
47287;SDS011;33020;53.008;13.558;2023-07-31T12:40:32;4.32;;;3.58;;
47287;SDS011;33020;53.008;13.558;2023-07-31T12:43:02;7.35;;;4.35;;
47287;SDS011;33020;53.008;13.558;2023-07-31T12:45:30;5.90;;;4.35;;
47287;SDS011;33020;53.008;13.558;2023-07-31T12:48:00;4.85;;;3.58;;
47287;SDS011;33020;53.008;13.558;2023-07-31T12:50:27;8.23;;;4.55;;
47287;SDS011;33020;53.008;13.558;2023-07-31T12:52:57;4.28;;;3.75;;
47287;SDS011;33020;53.008;13.558;2023-07-31T12:55:27;6.35;;;4.65;;
47287;SDS011;33020;53.008;13.558;2023-07-31T12:57:54;5.72;;;3.78;;
47287;SDS011;33020;53.008;13.558;2023-07-31T13:00:22;6.68;;;3.75;;
47287;SDS011;33020;53.008;13.558;2023-07-31T13:02:49;6.57;;;3.78;;
47287;SDS011;33020;53.008;13.558;2023-07-31T13:05:16;6.20;;;4.43;;
47287;SDS011;33020;53.008;13.558;2023-07-31T13:07:43;5.63;;;3.95;;
47287;SDS011;33020;53.008;13.558;2023-07-31T13:10:12;6.10;;;4.07;;
47287;SDS011;33020;53.008;13.558;2023-07-31T13:12:39;5.05;;;3.80;;
47287;SDS011;33020;53.008;13.558;2023-07-31T13:15:06;3.83;;;2.53;;
47287;SDS011;33020;53.008;13.558;2023-07-31T13:17:33;6.68;;;3.30;;
47287;SDS011;33020;53.008;13.558;2023-07-31T13:20:04;3.53;;;2.83;;
47287;SDS011;33020;53.008;13.558;2023-07-31T13:22:31;3.70;;;2.47;;
47287;SDS011;33020;53.008;13.558;2023-07-31T13:24:58;4.85;;;3.05;;
47287;SDS011;33020;53.008;13.558;2023-07-31T13:27:25;5.68;;;3.25;;
47287;SDS011;33020;53.008;13.558;2023-07-31T13:29:54;4.80;;;3.10;;
47287;SDS011;33020;53.008;13.558;2023-07-31T13:32:21;3.33;;;2.22;;
47287;SDS011;33020;53.008;13.558;2023-07-31T13:34:51;3.08;;;2.75;;
47287;SDS011;33020;53.008;13.558;2023-07-31T13:37:18;4.75;;;2.55;;
47287;SDS011;33020;53.008;13.558;2023-07-31T13:39:45;5.05;;;2.65;;
47287;SDS011;33020;53.008;13.558;2023-07-31T13:42:12;4.68;;;2.90;;
47287;SDS011;33020;53.008;13.558;2023-07-31T13:44:39;5.82;;;2.85;;
47287;SDS011;33020;53.008;13.558;2023-07-31T13:47:06;3.63;;;2.60;;
47287;SDS011;33020;53.008;13.558;2023-07-31T13:49:36;4.20;;;2.53;;
47287;SDS011;33020;53.008;13.558;2023-07-31T13:52:06;4.45;;;2.90;;
47287;SDS011;33020;53.008;13.558;2023-07-31T13:54:35;3.95;;;2.72;;
47287;SDS011;33020;53.008;13.558;2023-07-31T13:57:03;4.95;;;3.45;;
47287;SDS011;33020;53.008;13.558;2023-07-31T13:59:30;6.15;;;2.80;;
47287;SDS011;33020;53.008;13.558;2023-07-31T14:01:57;4.55;;;2.72;;
47287;SDS011;33020;53.008;13.558;2023-07-31T14:04:27;4.85;;;2.95;;
47287;SDS011;33020;53.008;13.558;2023-07-31T14:06:55;5.82;;;2.85;;
47287;SDS011;33020;53.008;13.558;2023-07-31T14:09:22;4.50;;;3.03;;
47287;SDS011;33020;53.008;13.558;2023-07-31T14:11:49;4.50;;;3.20;;
47287;SDS011;33020;53.008;13.558;2023-07-31T14:14:16;4.75;;;2.80;;
47287;SDS011;33020;53.008;13.558;2023-07-31T14:16:46;5.93;;;3.35;;
47287;SDS011;33020;53.008;13.558;2023-07-31T14:19:13;3.83;;;2.75;;
47287;SDS011;33020;53.008;13.558;2023-07-31T14:21:43;6.05;;;3.13;;
47287;SDS011;33020;53.008;13.558;2023-07-31T14:24:19;5.07;;;3.22;;
47287;SDS011;33020;53.008;13.558;2023-07-31T14:26:52;4.60;;;3.30;;
47287;SDS011;33020;53.008;13.558;2023-07-31T14:29:19;6.63;;;4.68;;
47287;SDS011;33020;53.008;13.558;2023-07-31T14:31:49;4.47;;;2.90;;
47287;SDS011;33020;53.008;13.558;2023-07-31T14:34:15;3.90;;;2.65;;
47287;SDS011;33020;53.008;13.558;2023-07-31T14:36:43;4.82;;;2.80;;
47287;SDS011;33020;53.008;13.558;2023-07-31T14:39:13;4.22;;;2.78;;
47287;SDS011;33020;53.008;13.558;2023-07-31T14:41:40;5.88;;;3.78;;
47287;SDS011;33020;53.008;13.558;2023-07-31T14:44:07;4.95;;;3.00;;
47287;SDS011;33020;53.008;13.558;2023-07-31T14:46:36;4.80;;;3.08;;
47287;SDS011;33020;53.008;13.558;2023-07-31T14:49:04;3.78;;;2.70;;
47287;SDS011;33020;53.008;13.558;2023-07-31T14:51:31;3.55;;;2.45;;
47287;SDS011;33020;53.008;13.558;2023-07-31T14:53:59;3.63;;;2.92;;
47287;SDS011;33020;53.008;13.558;2023-07-31T14:56:26;4.88;;;3.33;;
47287;SDS011;33020;53.008;13.558;2023-07-31T14:58:54;3.60;;;2.72;;